Time;durP1;ratioP1;P1;durP2;ratioP2;P2;SDS_P1;SDS_P2;PMS_P1;PMS_P2;Temp;Humidity;BMP_temperature;BMP_pressure;BME280_temperature;BME280_humidity;BME280_pressure;Samples;Min_cycle;Max_cycle;Signal;HPM_P1;HPM_P2
2023/08/06 00:00:21;;;;;;;19.67;10.15;;;14.60;99.90;;;;;;5086304;28;20404;-72
2023/08/06 00:02:46;;;;;;;22.50;10.60;;;14.60;99.90;;;;;;5054012;28;20396;-72
2023/08/06 00:05:12;;;;;;;22.13;10.45;;;14.60;99.90;;;;;;5052473;28;20056;-73
2023/08/06 00:07:38;;;;;;;21.25;10.73;;;14.60;99.90;;;;;;5053822;28;20508;-72
2023/08/06 00:10:04;;;;;;;23.02;10.20;;;14.60;99.90;;;;;;5053695;28;20136;-73
2023/08/06 00:12:29;;;;;;;19.88;9.60;;;14.60;99.90;;;;;;5054456;28;20056;-72
2023/08/06 00:14:55;;;;;;;21.13;10.30;;;14.60;99.90;;;;;;5053641;28;20045;-72
2023/08/06 00:17:21;;;;;;;19.63;10.50;;;14.60;99.90;;;;;;5052357;28;20056;-73
2023/08/06 00:19:47;;;;;;;24.95;10.75;;;14.60;99.90;;;;;;5053466;28;20454;-72
2023/08/06 00:22:12;;;;;;;20.48;10.05;;;14.50;99.90;;;;;;5053434;28;20048;-72
2023/08/06 00:24:38;;;;;;;22.40;10.07;;;14.50;99.90;;;;;;5053229;28;20044;-73
2023/08/06 00:27:04;;;;;;;19.25;10.23;;;14.50;99.90;;;;;;5053371;28;20107;-74
2023/08/06 00:29:29;;;;;;;20.13;9.75;;;14.50;99.90;;;;;;5053419;28;20049;-74
2023/08/06 00:31:55;;;;;;;20.65;9.63;;;14.50;99.90;;;;;;5053195;28;20041;-74
2023/08/06 00:34:21;;;;;;;20.48;9.75;;;14.40;99.90;;;;;;5052382;28;20497;-73
2023/08/06 00:36:47;;;;;;;22.98;10.10;;;14.40;99.90;;;;;;5035747;28;20053;-72
2023/08/06 00:39:12;;;;;;;21.98;10.88;;;14.40;99.90;;;;;;5085414;28;20468;-72
2023/08/06 00:41:38;;;;;;;22.52;9.90;;;14.30;99.90;;;;;;5053251;28;20048;-73
2023/08/06 00:44:04;;;;;;;22.30;9.57;;;14.30;99.90;;;;;;5053214;28;20057;-74
2023/08/06 00:46:31;;;;;;;20.00;9.93;;;14.20;99.90;;;;;;5053144;28;20127;-72
2023/08/06 00:48:57;;;;;;;;;;;14.20;99.90;;;;;;5053406;28;20106;-84
2023/08/06 00:51:24;;;;;;;18.00;9.00;;;14.10;99.90;;;;;;5052092;28;19920;-74
2023/08/06 00:53:50;;;;;;;22.42;9.85;;;14.00;99.90;;;;;;5054501;28;20048;-72
2023/08/06 00:56:16;;;;;;;23.13;10.73;;;13.90;99.90;;;;;;5057160;28;20370;-74
2023/08/06 00:58:42;;;;;;;19.40;10.25;;;13.90;99.90;;;;;;5057734;28;20048;-73
2023/08/06 01:01:08;;;;;;;21.73;10.43;;;13.90;99.90;;;;;;5039378;28;20045;-73
2023/08/06 01:03:33;;;;;;;22.52;11.15;;;13.80;99.90;;;;;;5055745;28;20056;-73
2023/08/06 01:06:00;;;;;;;24.05;10.68;;;13.80;99.90;;;;;;5055740;28;20037;-82
2023/08/06 01:08:55;;;;;;;21.23;10.55;;;13.80;99.90;;;;;;5056294;28;20049;-73
2023/08/06 01:11:33;;;;;;;26.30;11.90;;;13.80;99.90;;;;;;5059652;28;20052;-82
2023/08/06 01:14:08;;;;;;;24.45;10.77;;;13.80;99.90;;;;;;5059362;28;20099;-82
2023/08/06 01:16:35;;;;;;;24.23;11.65;;;13.90;99.90;;;;;;5060484;28;20053;-82
2023/08/06 01:19:01;;;;;;;26.35;11.10;;;13.90;99.90;;;;;;5060286;28;20051;-77
2023/08/06 01:21:26;;;;;;;24.67;11.57;;;13.90;99.90;;;;;;5056853;28;20408;-82
2023/08/06 01:23:52;;;;;;;26.73;11.60;;;13.90;99.90;;;;;;5057906;28;20048;-84
2023/08/06 01:26:27;;;;;;;24.58;11.73;;;13.90;99.90;;;;;;5057956;28;20124;-83
2023/08/06 01:29:13;;;;;;;27.40;12.18;;;13.90;99.90;;;;;;5058854;28;20435;-82
2023/08/06 01:31:43;;;;;;;26.65;11.90;;;13.90;99.90;;;;;;5057580;28;20481;-83
2023/08/06 01:34:17;;;;;;;25.73;11.35;;;13.80;99.90;;;;;;5057795;28;20127;-81
2023/08/06 01:36:43;;;;;;;29.80;11.90;;;13.80;99.90;;;;;;5057624;28;20041;-83
2023/08/06 01:39:10;;;;;;;25.73;11.45;;;13.80;99.90;;;;;;5039484;28;20106;-83
2023/08/06 01:41:35;;;;;;;23.48;11.02;;;13.80;99.90;;;;;;5056414;28;20056;-82
2023/08/06 01:44:01;;;;;;;25.60;12.10;;;13.80;99.90;;;;;;5057644;28;20041;-83
2023/08/06 01:46:27;;;;;;;25.63;12.25;;;13.80;99.90;;;;;;5056324;28;20056;-84
2023/08/06 01:48:52;;;;;;;27.55;12.65;;;13.90;99.90;;;;;;5056201;28;20041;-83
2023/08/06 01:51:18;;;;;;;24.85;12.55;;;13.90;99.90;;;;;;5057307;28;20049;-82
2023/08/06 01:53:44;;;;;;;24.77;12.32;;;13.90;99.90;;;;;;5076846;28;20061;-82
2023/08/06 01:56:09;;;;;;;28.45;12.43;;;13.90;99.90;;;;;;5072778;28;20389;-81
2023/08/06 01:58:35;;;;;;;26.05;11.38;;;14.00;99.90;;;;;;5060105;28;20087;-83
2023/08/06 02:01:01;;;;;;;25.95;11.43;;;14.00;99.90;;;;;;5058583;28;20170;-82
2023/08/06 02:03:27;;;;;;;21.23;10.90;;;14.00;99.90;;;;;;5057309;28;20052;-83
2023/08/06 02:05:53;;;;;;;24.38;11.45;;;14.00;99.90;;;;;;5055645;28;20288;-80
2023/08/06 02:08:19;;;;;;;23.17;11.57;;;14.00;99.90;;;;;;5089495;28;20048;-81
2023/08/06 02:10:45;;;;;;;25.95;12.25;;;14.00;99.90;;;;;;5057779;28;20037;-82
2023/08/06 02:13:11;;;;;;;24.58;11.85;;;14.00;99.90;;;;;;5058146;28;20128;-81
2023/08/06 02:15:43;;;;;;;25.33;11.40;;;14.00;99.90;;;;;;5058488;28;20087;-82
2023/08/06 02:18:09;;;;;;;22.75;11.40;;;14.00;99.90;;;;;;5057616;28;20049;-76
2023/08/06 02:20:34;;;;;;;23.33;11.73;;;14.00;99.90;;;;;;5056494;28;20099;-82
2023/08/06 02:23:00;;;;;;;23.63;11.95;;;13.90;99.90;;;;;;5056715;28;20090;-83
2023/08/06 02:25:26;;;;;;;20.88;10.98;;;13.90;99.90;;;;;;5056664;28;20056;-82
2023/08/06 02:27:51;;;;;;;25.45;12.35;;;13.90;99.90;;;;;;5057654;28;20040;-83
2023/08/06 02:30:17;;;;;;;27.30;11.90;;;13.80;99.90;;;;;;5057517;28;20473;-82
2023/08/06 02:32:43;;;;;;;26.42;11.40;;;13.80;99.90;;;;;;5057739;28;20045;-81
2023/08/06 02:35:09;;;;;;;29.83;11.95;;;13.80;99.90;;;;;;5089333;28;20053;-83
2023/08/06 02:37:35;;;;;;;25.02;11.27;;;13.80;99.90;;;;;;5056305;28;20190;-85
2023/08/06 02:40:01;;;;;;;23.73;11.25;;;13.80;99.90;;;;;;5055207;28;20045;-84
2023/08/06 02:42:26;;;;;;;21.95;11.20;;;13.80;99.90;;;;;;5056287;28;20040;-83
2023/08/06 02:44:54;;;;;;;22.42;11.38;;;13.80;99.90;;;;;;5056504;28;20131;-83
2023/08/06 02:47:20;;;;;;;25.80;10.80;;;13.70;99.90;;;;;;5056800;28;20084;-84
2023/08/06 02:49:46;;;;;;;24.33;11.95;;;13.70;99.90;;;;;;5056301;28;20084;-81
2023/08/06 02:52:12;;;;;;;23.20;11.13;;;13.60;99.90;;;;;;5056423;28;20040;-81
2023/08/06 02:54:38;;;;;;;22.20;11.32;;;13.60;99.90;;;;;;5056397;28;20060;-85
2023/08/06 02:57:05;;;;;;;21.77;11.50;;;13.50;99.90;;;;;;5056234;28;20477;-84
2023/08/06 02:59:31;;;;;;;;;;;13.50;99.90;;;;;;5040318;28;20441;-83
2023/08/06 03:01:57;;;;;;;22.10;10.15;;;13.60;99.90;;;;;;5057632;28;19928;-81
2023/08/06 03:04:23;;;;;;;22.95;10.77;;;13.60;99.90;;;;;;5059895;28;20069;-84
2023/08/06 03:06:52;;;;;;;24.83;11.55;;;13.60;99.90;;;;;;5056805;28;20076;-82
2023/08/06 03:09:18;;;;;;;23.42;11.18;;;13.60;99.90;;;;;;5057570;28;20126;-82
2023/08/06 03:11:43;;;;;;;24.60;11.52;;;13.60;99.90;;;;;;5058497;28;20405;-82
2023/08/06 03:14:09;;;;;;;23.52;11.02;;;13.70;99.90;;;;;;5060113;28;20045;-83
2023/08/06 03:16:35;;;;;;;29.38;12.23;;;13.60;99.90;;;;;;5056490;28;20088;-82
2023/08/06 03:19:01;;;;;;;24.50;11.00;;;13.70;99.90;;;;;;5037138;28;20084;-81
2023/08/06 03:21:26;;;;;;;23.80;10.57;;;13.60;99.90;;;;;;5055971;28;20094;-80
2023/08/06 03:23:52;;;;;;;27.85;13.35;;;13.60;99.90;;;;;;5055571;28;20072;-81
2023/08/06 03:26:18;;;;;;;23.52;11.10;;;13.60;99.90;;;;;;5056067;28;20045;-79
2023/08/06 03:28:44;;;;;;;25.95;10.65;;;13.70;99.90;;;;;;5056688;28;20052;-81
2023/08/06 03:31:09;;;;;;;23.23;11.60;;;13.70;99.90;;;;;;5089630;28;20081;-82
2023/08/06 03:33:35;;;;;;;22.52;11.27;;;13.70;99.90;;;;;;5057495;28;20084;-82
2023/08/06 03:36:01;;;;;;;21.65;11.13;;;13.70;99.90;;;;;;5054438;28;20066;-83
2023/08/06 03:38:27;;;;;;;26.42;11.65;;;13.70;99.90;;;;;;5054794;28;20061;-81
2023/08/06 03:40:53;;;;;;;24.13;11.23;;;13.70;99.90;;;;;;5055381;28;20072;-82
2023/08/06 03:43:19;;;;;;;23.45;11.65;;;13.60;99.90;;;;;;5054448;28;20041;-83
2023/08/06 03:45:45;;;;;;;22.73;10.93;;;13.60;99.90;;;;;;5055264;28;20485;-82
2023/08/06 03:48:11;;;;;;;23.55;11.80;;;13.60;99.90;;;;;;5088078;28;20295;-81
2023/08/06 03:50:37;;;;;;;28.05;11.80;;;13.60;99.90;;;;;;5055246;28;20041;-81
2023/08/06 03:53:03;;;;;;;24.48;11.30;;;13.60;99.90;;;;;;5055155;28;20613;-82
2023/08/06 03:55:29;;;;;;;23.98;11.40;;;13.60;99.90;;;;;;5055388;28;20084;-83
2023/08/06 03:57:55;;;;;;;23.65;11.35;;;13.60;99.90;;;;;;5055580;28;20044;-82
2023/08/06 04:00:20;;;;;;;28.25;12.07;;;13.60;99.90;;;;;;5056633;28;20041;-82
2023/08/06 04:02:46;;;;;;;23.17;10.85;;;13.70;99.90;;;;;;5059606;28;20397;-83
2023/08/06 04:05:12;;;;;;;24.75;11.75;;;13.70;99.90;;;;;;5064365;28;20385;-82
2023/08/06 04:07:38;;;;;;;23.27;11.25;;;13.70;99.90;;;;;;5063546;28;20048;-83
2023/08/06 04:10:04;;;;;;;26.23;12.48;;;13.70;99.90;;;;;;5058110;28;20381;-83
2023/08/06 04:12:31;;;;;;;28.90;12.45;;;13.80;99.90;;;;;;5057815;28;20077;-84
2023/08/06 04:15:00;;;;;;;22.37;11.30;;;13.80;99.90;;;;;;5055676;28;20059;-82
2023/08/06 04:17:26;;;;;;;27.50;12.27;;;13.80;99.90;;;;;;5055313;28;20041;-82
2023/08/06 04:19:54;;;;;;;25.77;12.68;;;13.80;99.90;;;;;;5054607;28;20480;-82
2023/08/06 04:22:20;;;;;;;25.13;12.25;;;13.70;99.90;;;;;;5055207;28;20052;-81
2023/08/06 04:24:46;;;;;;;26.17;12.00;;;13.70;99.90;;;;;;5055080;28;20053;-83
2023/08/06 04:27:14;;;;;;;26.05;11.70;;;13.80;99.90;;;;;;5056406;28;20114;-83
2023/08/06 04:29:39;;;;;;;23.73;11.27;;;13.70;99.90;;;;;;5056700;28;20049;-83
2023/08/06 04:32:07;;;;;;;24.23;11.75;;;13.80;99.90;;;;;;5060366;28;20067;-83
2023/08/06 04:34:33;;;;;;;27.23;12.40;;;13.80;99.90;;;;;;5057003;28;20044;-82
2023/08/06 04:37:00;;;;;;;21.23;10.93;;;13.90;99.90;;;;;;5057108;28;20048;-82
2023/08/06 04:39:26;;;;;;;27.15;11.48;;;13.90;99.90;;;;;;5056443;28;20298;-82
2023/08/06 04:41:52;;;;;;;24.48;11.93;;;14.00;99.90;;;;;;5056321;28;20128;-83
2023/08/06 04:44:17;;;;;;;23.75;11.88;;;14.00;99.90;;;;;;5059225;28;20049;-84
2023/08/06 04:46:43;;;;;;;22.98;11.50;;;14.00;99.90;;;;;;5063966;28;20079;-83
2023/08/06 04:49:09;;;;;;;23.95;12.10;;;14.10;99.90;;;;;;5061841;28;20102;-83
2023/08/06 04:51:34;;;;;;;27.30;11.60;;;14.10;99.90;;;;;;5060475;28;20037;-81
2023/08/06 04:54:00;;;;;;;24.08;11.48;;;14.10;99.90;;;;;;5055302;28;20158;-82
2023/08/06 04:56:26;;;;;;;27.58;11.48;;;14.20;99.90;;;;;;5054070;28;20132;-83
2023/08/06 04:58:52;;;;;;;23.20;11.50;;;14.20;99.90;;;;;;5056243;28;20153;-84
2023/08/06 05:01:18;;;;;;;23.90;11.70;;;14.30;99.90;;;;;;5093507;28;20102;-84
2023/08/06 05:03:43;;;;;;;24.42;12.02;;;14.30;99.90;;;;;;5062309;28;20060;-84
2023/08/06 05:06:10;;;;;;;26.50;12.88;;;14.30;99.90;;;;;;5060970;28;20072;-83
2023/08/06 05:08:36;;;;;;;26.45;12.35;;;14.30;99.90;;;;;;5060846;28;20115;-83
2023/08/06 05:11:02;;;;;;;21.45;11.45;;;14.40;99.90;;;;;;5042232;28;20435;-82
2023/08/06 05:13:27;;;;;;;28.00;13.27;;;14.40;99.90;;;;;;5060857;28;20049;-83
2023/08/06 05:15:54;;;;;;;24.67;12.02;;;14.40;99.90;;;;;;5059448;28;20053;-83
2023/08/06 05:18:20;;;;;;;22.52;12.18;;;14.40;99.90;;;;;;5057446;28;20056;-81
2023/08/06 05:20:46;;;;;;;30.55;13.75;;;14.40;99.90;;;;;;5056284;28;20037;-84
2023/08/06 05:23:12;;;;;;;24.50;12.15;;;14.40;99.90;;;;;;5055230;28;20114;-83
2023/08/06 05:25:38;;;;;;;24.63;12.55;;;14.50;99.90;;;;;;5054808;28;20051;-83
2023/08/06 05:28:04;;;;;;;27.65;13.20;;;14.40;99.90;;;;;;5090436;28;20405;-82
2023/08/06 05:30:30;;;;;;;32.20;13.83;;;14.50;99.90;;;;;;5059713;28;20462;-81
2023/08/06 05:32:56;;;;;;;26.42;13.00;;;14.50;99.90;;;;;;5057828;28;20088;-82
2023/08/06 05:35:22;;;;;;;25.00;13.48;;;14.60;99.90;;;;;;5054087;28;20045;-82
2023/08/06 05:37:49;;;;;;;24.23;12.65;;;14.50;99.90;;;;;;5090357;28;20068;-84
2023/08/06 05:40:15;;;;;;;;;;;14.50;99.90;;;;;;5092514;28;20048;-82
2023/08/06 05:42:41;;;;;;;26.57;11.73;;;14.60;99.90;;;;;;5058129;28;19921;-83
2023/08/06 05:45:07;;;;;;;27.35;13.50;;;14.60;99.90;;;;;;5058839;28;20139;-82
2023/08/06 05:47:33;;;;;;;26.40;13.55;;;14.70;99.90;;;;;;5057219;28;20059;-83
2023/08/06 05:49:59;;;;;;;24.42;12.70;;;14.70;99.90;;;;;;5058626;28;20044;-82
2023/08/06 05:52:25;;;;;;;28.55;13.82;;;14.60;99.90;;;;;;5056186;28;20393;-83
2023/08/06 05:54:50;;;;;;;26.35;13.98;;;14.70;99.90;;;;;;5058440;28;20053;-83
2023/08/06 05:57:17;;;;;;;29.48;13.45;;;14.70;99.90;;;;;;5091482;28;20099;-82
2023/08/06 05:59:43;;;;;;;26.10;13.73;;;14.80;99.90;;;;;;5058760;28;20080;-83
2023/08/06 06:02:08;;;;;;;26.38;13.65;;;14.80;99.90;;;;;;5091618;28;20048;-85
2023/08/06 06:04:34;;;;;;;27.60;13.15;;;14.80;99.90;;;;;;5056809;28;20049;-84
2023/08/06 06:07:00;;;;;;;24.30;12.45;;;15.00;99.90;;;;;;5072713;28;20049;-83
2023/08/06 06:09:25;;;;;;;27.23;13.40;;;15.00;99.90;;;;;;5056779;28;20037;-83
2023/08/06 06:11:51;;;;;;;24.15;12.95;;;15.10;99.90;;;;;;5056867;28;20041;-83
2023/08/06 06:14:18;;;;;;;28.02;13.45;;;15.20;99.90;;;;;;5063610;28;20056;-83
2023/08/06 06:16:44;;;;;;;28.60;13.15;;;15.10;99.90;;;;;;5075258;28;20083;-82
2023/08/06 06:19:10;;;;;;;24.75;13.05;;;15.10;99.90;;;;;;5068805;28;20044;-81
2023/08/06 06:21:36;;;;;;;26.70;14.25;;;15.20;99.90;;;;;;5059596;28;20045;-81
2023/08/06 06:24:02;;;;;;;26.73;13.40;;;15.20;99.90;;;;;;5040806;28;20045;-80
2023/08/06 06:26:28;;;;;;;28.73;13.45;;;15.10;99.90;;;;;;5057058;28;20049;-85
2023/08/06 06:28:54;;;;;;;28.38;14.45;;;15.20;99.90;;;;;;5057895;28;20044;-85
2023/08/06 06:31:19;;;;;;;29.08;14.88;;;15.10;99.90;;;;;;5038754;28;20045;-81
2023/08/06 06:33:45;;;;;;;28.25;14.65;;;15.10;99.90;;;;;;5056278;28;20041;-81
2023/08/06 06:36:11;;;;;;;31.67;14.70;;;15.20;99.90;;;;;;5057088;28;20045;-81
2023/08/06 06:38:37;;;;;;;35.75;14.85;;;15.20;99.90;;;;;;5071425;28;20060;-79
2023/08/06 06:41:03;;;;;;;26.23;13.55;;;15.30;99.90;;;;;;5055905;28;20055;-80
2023/08/06 06:43:29;;;;;;;26.30;15.13;;;15.40;99.90;;;;;;5055388;28;20059;-81
2023/08/06 06:45:59;;;;;;;31.48;15.30;;;15.50;99.90;;;;;;5038381;28;20396;-78
2023/08/06 06:48:28;;;;;;;31.60;15.57;;;15.60;99.90;;;;;;5056277;28;20053;-82
2023/08/06 06:50:54;;;;;;;32.03;16.02;;;15.70;99.90;;;;;;5055746;28;20500;-79
2023/08/06 06:53:23;;;;;;;27.60;16.13;;;15.70;99.90;;;;;;5056632;28;20053;-79
2023/08/06 06:55:49;;;;;;;32.00;16.45;;;15.80;99.90;;;;;;5091399;28;20045;-80
2023/08/06 06:58:16;;;;;;;33.72;16.80;;;15.90;99.90;;;;;;5057767;28;20041;-79
2023/08/06 07:00:42;;;;;;;34.58;17.67;;;16.00;99.90;;;;;;5057901;28;20060;-80
2023/08/06 07:03:07;;;;;;;32.67;16.85;;;16.10;99.90;;;;;;5091660;28;20053;-78
2023/08/06 07:05:33;;;;;;;31.73;17.80;;;16.20;99.90;;;;;;5060106;28;20051;-79
2023/08/06 07:07:59;;;;;;;31.35;17.50;;;16.20;99.90;;;;;;5060329;28;20045;-80
2023/08/06 07:10:26;;;;;;;31.63;16.65;;;16.30;99.90;;;;;;5060603;28;20045;-80
2023/08/06 07:12:51;;;;;;;30.88;16.40;;;16.30;99.90;;;;;;5058480;28;20080;-80
2023/08/06 07:15:17;;;;;;;27.77;16.30;;;16.40;99.90;;;;;;5061711;28;20056;-80
2023/08/06 07:17:43;;;;;;;31.60;16.75;;;16.50;99.90;;;;;;5061739;28;20088;-77
2023/08/06 07:20:10;;;;;;;31.80;15.80;;;16.50;99.90;;;;;;5060964;28;20052;-79
2023/08/06 07:22:35;;;;;;;34.75;17.33;;;16.50;99.90;;;;;;5059302;28;20041;-79
2023/08/06 07:25:01;;;;;;;32.33;16.80;;;16.30;99.90;;;;;;5058833;28;20041;-78
2023/08/06 07:27:27;;;;;;;31.75;17.33;;;16.20;99.90;;;;;;5059390;28;20049;-77
2023/08/06 07:29:53;;;;;;;33.30;17.08;;;16.40;99.90;;;;;;5090971;28;20552;-78
2023/08/06 07:32:18;;;;;;;34.38;17.95;;;16.40;99.90;;;;;;5058382;28;20045;-80
2023/08/06 07:34:44;;;;;;;30.83;16.23;;;16.50;99.90;;;;;;5056936;28;20040;-79
2023/08/06 07:37:10;;;;;;;32.08;16.77;;;16.30;99.90;;;;;;5037943;28;20131;-79
2023/08/06 07:39:37;;;;;;;33.63;18.20;;;16.50;99.90;;;;;;5055857;28;20080;-77
2023/08/06 07:42:05;;;;;;;35.22;17.52;;;16.40;99.90;;;;;;5053722;28;20088;-77
2023/08/06 07:44:31;;;;;;;36.85;20.48;;;16.50;99.90;;;;;;5053857;28;20107;-77
2023/08/06 07:46:57;;;;;;;37.50;18.30;;;16.20;99.90;;;;;;5054633;28;20440;-80
2023/08/06 07:49:23;;;;;;;40.35;18.80;;;16.20;99.90;;;;;;5054566;28;20118;-79
2023/08/06 07:51:49;;;;;;;33.47;17.70;;;16.40;99.90;;;;;;5087354;28;20048;-79
2023/08/06 07:54:14;;;;;;;35.70;18.98;;;16.50;99.90;;;;;;5037754;28;20048;-79
2023/08/06 07:56:40;;;;;;;38.45;18.05;;;16.60;99.90;;;;;;5054661;28;20181;-79
2023/08/06 07:59:06;;;;;;;35.58;18.50;;;16.70;99.90;;;;;;5055130;28;20088;-80
2023/08/06 08:01:31;;;;;;;37.05;17.73;;;16.80;99.90;;;;;;5053575;28;20076;-78
2023/08/06 08:03:57;;;;;;;33.38;17.65;;;16.70;99.90;;;;;;5036373;28;20041;-79
2023/08/06 08:06:23;;;;;;;28.83;15.37;;;16.50;99.90;;;;;;5037078;28;20061;-78
2023/08/06 08:08:49;;;;;;;29.85;15.77;;;16.50;99.90;;;;;;5054868;28;20133;-80
2023/08/06 08:11:15;;;;;;;31.83;17.33;;;16.70;99.90;;;;;;5053908;28;20143;-81
2023/08/06 08:13:41;;;;;;;29.70;16.23;;;16.60;99.90;;;;;;5053873;28;20041;-80
2023/08/06 08:16:07;;;;;;;31.15;15.88;;;16.50;99.90;;;;;;5036474;28;20043;-79
2023/08/06 08:18:33;;;;;;;28.58;14.57;;;16.60;99.90;;;;;;5053445;28;20145;-81
2023/08/06 08:20:59;;;;;;;29.53;14.93;;;16.50;99.90;;;;;;5052852;28;20044;-80
2023/08/06 08:23:25;;;;;;;25.60;13.87;;;16.60;99.90;;;;;;5054598;28;20128;-80
2023/08/06 08:25:51;;;;;;;27.23;14.90;;;16.70;99.90;;;;;;5057024;28;20378;-82
2023/08/06 08:28:17;;;;;;;31.30;14.43;;;16.80;99.90;;;;;;5072450;28;20096;-81
2023/08/06 08:30:42;;;;;;;24.70;14.35;;;17.10;99.90;;;;;;5065772;28;20040;-82
2023/08/06 08:33:08;;;;;;;25.38;13.38;;;17.20;99.90;;;;;;5054287;28;20503;-81
2023/08/06 08:35:35;;;;;;;27.40;14.80;;;17.10;99.90;;;;;;5054222;28;20120;-81
2023/08/06 08:38:01;;;;;;;25.73;13.77;;;17.30;99.90;;;;;;5054506;28;20061;-77
2023/08/06 08:40:31;;;;;;;22.05;12.57;;;17.40;99.90;;;;;;5087558;28;20110;-82
2023/08/06 08:42:58;;;;;;;24.58;13.95;;;17.30;99.90;;;;;;5054516;28;20481;-81
2023/08/06 08:45:26;;;;;;;;;;;17.50;99.90;;;;;;5053328;28;20079;-78
2023/08/06 08:47:52;;;;;;;24.75;13.32;;;17.70;99.90;;;;;;5053008;28;20292;-78
2023/08/06 08:50:19;;;;;;;22.63;12.52;;;17.50;99.90;;;;;;5054080;28;20041;-81
2023/08/06 08:52:45;;;;;;;26.90;13.88;;;17.50;99.90;;;;;;5053777;28;20041;-80
2023/08/06 08:55:13;;;;;;;22.57;12.50;;;17.60;99.90;;;;;;5054559;28;20473;-78
2023/08/06 08:57:39;;;;;;;23.50;12.75;;;17.80;99.90;;;;;;5054006;28;20056;-81
2023/08/06 09:00:06;;;;;;;23.33;13.13;;;17.80;99.90;;;;;;5054687;28;20045;-80
2023/08/06 09:02:33;;;;;;;22.00;12.13;;;17.60;99.90;;;;;;5053671;28;20052;-78
2023/08/06 09:05:04;;;;;;;22.02;12.40;;;17.70;99.90;;;;;;5053406;28;20049;-77
2023/08/06 09:07:35;;;;;;;23.58;12.85;;;17.60;99.90;;;;;;5053734;28;20045;-78
2023/08/06 09:10:06;;;;;;;22.85;12.90;;;17.80;99.90;;;;;;5054209;28;20382;-77
2023/08/06 09:12:31;;;;;;;26.02;12.85;;;17.80;99.90;;;;;;5053378;28;20481;-77
2023/08/06 09:14:58;;;;;;;23.40;11.63;;;17.90;99.90;;;;;;5054069;28;20045;-79
2023/08/06 09:17:24;;;;;;;19.00;11.60;;;18.20;99.90;;;;;;5057774;28;20389;-78
2023/08/06 09:19:49;;;;;;;21.50;10.87;;;18.20;99.90;;;;;;5057102;28;20045;-77
2023/08/06 09:22:15;;;;;;;21.47;11.87;;;18.30;99.90;;;;;;5055846;28;20045;-78
2023/08/06 09:24:42;;;;;;;21.30;11.30;;;18.30;99.90;;;;;;5056114;28;20045;-76
2023/08/06 09:27:15;;;;;;;21.73;10.27;;;18.40;99.90;;;;;;5056223;28;20045;-76
2023/08/06 09:29:45;;;;;;;18.75;10.77;;;18.40;99.90;;;;;;5055937;28;20084;-75
2023/08/06 09:32:14;;;;;;;19.02;10.18;;;18.50;99.90;;;;;;5056928;28;20048;-78
2023/08/06 09:34:43;;;;;;;17.52;9.80;;;18.50;99.90;;;;;;5055712;28;20055;-76
2023/08/06 09:37:12;;;;;;;18.15;10.00;;;18.80;99.90;;;;;;5056403;28;20433;-75
2023/08/06 09:39:42;;;;;;;19.38;10.00;;;19.00;99.90;;;;;;5057520;28;20443;-77
2023/08/06 09:42:08;;;;;;;20.60;9.95;;;19.10;99.90;;;;;;5072804;28;20099;-76
2023/08/06 09:44:34;;;;;;;16.57;9.93;;;19.00;99.90;;;;;;5056210;28;20095;-77
2023/08/06 09:47:04;;;;;;;19.20;9.73;;;19.30;99.90;;;;;;5056442;28;20502;-75
2023/08/06 09:49:32;;;;;;;17.13;9.27;;;19.10;99.90;;;;;;5056534;28;20095;-75
2023/08/06 09:51:59;;;;;;;17.73;9.88;;;19.20;99.90;;;;;;5055107;28;20394;-76
2023/08/06 09:54:27;;;;;;;17.17;9.00;;;19.00;99.90;;;;;;5056236;28;20045;-76
2023/08/06 09:56:54;;;;;;;15.32;9.15;;;19.00;99.90;;;;;;5056232;28;20048;-75
2023/08/06 09:59:20;;;;;;;16.90;10.05;;;19.00;99.90;;;;;;5055948;28;20114;-76
2023/08/06 10:01:46;;;;;;;15.80;8.68;;;19.00;99.90;;;;;;5055622;28;20041;-75
2023/08/06 10:04:18;;;;;;;17.65;9.98;;;19.10;99.90;;;;;;5056128;28;20049;-73
2023/08/06 10:06:47;;;;;;;17.52;9.77;;;19.20;99.90;;;;;;5056110;28;20049;-75
2023/08/06 10:09:13;;;;;;;18.70;11.70;;;19.20;99.90;;;;;;5055042;28;20045;-73
2023/08/06 10:11:39;;;;;;;22.23;10.37;;;19.10;99.90;;;;;;5056226;28;20041;-75
2023/08/06 10:14:16;;;;;;;19.35;10.65;;;19.40;99.90;;;;;;5054838;28;20041;-76
2023/08/06 10:16:42;;;;;;;17.50;10.25;;;19.50;99.90;;;;;;5055824;28;20049;-76
2023/08/06 10:19:10;;;;;;;21.38;11.23;;;19.50;99.90;;;;;;5055890;28;20045;-75
2023/08/06 10:21:38;;;;;;;18.88;10.40;;;19.50;99.90;;;;;;5056259;28;20052;-75
2023/08/06 10:24:09;;;;;;;18.27;11.32;;;19.70;99.90;;;;;;5054551;28;20044;-74
2023/08/06 10:26:35;;;;;;;18.83;10.90;;;19.70;99.90;;;;;;5055851;28;20040;-74
2023/08/06 10:29:00;;;;;;;17.73;11.27;;;20.00;99.90;;;;;;5055520;28;20522;-74
2023/08/06 10:32:14;;;;;;;17.97;10.53;;;20.10;99.90;;;;;;5055187;28;20134;-75
2023/08/06 10:34:57;;;;;;;18.15;9.73;;;20.30;99.90;;;;;;5050814;28;20060;-75
2023/08/06 10:37:23;;;;;;;18.65;10.35;;;20.60;99.90;;;;;;5055698;28;20124;-75
2023/08/06 10:39:53;;;;;;;17.92;10.00;;;20.70;99.90;;;;;;5062230;28;20393;-76
2023/08/06 10:42:27;;;;;;;15.85;9.68;;;20.80;99.90;;;;;;5041555;28;20044;-74
2023/08/06 10:45:15;;;;;;;17.85;9.35;;;21.00;99.90;;;;;;5056738;28;20037;-74
2023/08/06 10:47:42;;;;;;;16.65;9.15;;;20.90;99.90;;;;;;5055201;28;20041;-75
2023/08/06 10:50:10;;;;;;;;;;;20.90;99.90;;;;;;5054587;28;20053;-76
2023/08/06 10:52:36;;;;;;;18.58;9.70;;;21.00;99.90;;;;;;5055268;28;20296;-75
2023/08/06 10:55:02;;;;;;;15.50;9.17;;;20.80;99.90;;;;;;5055039;28;20045;-76
2023/08/06 10:57:28;;;;;;;18.53;9.83;;;21.10;99.90;;;;;;5055051;28;20497;-77
2023/08/06 10:59:53;;;;;;;14.87;10.03;;;21.10;99.90;;;;;;5055083;28;20048;-75
2023/08/06 11:02:19;;;;;;;17.23;9.10;;;20.80;99.90;;;;;;5054170;28;20116;-76
2023/08/06 11:04:45;;;;;;;14.40;8.97;;;21.10;99.90;;;;;;5055208;28;20052;-72
2023/08/06 11:07:11;;;;;;;16.77;9.67;;;20.70;99.90;;;;;;5070875;28;20130;-76
2023/08/06 11:09:37;;;;;;;14.53;8.30;;;20.70;99.90;;;;;;5070772;28;20473;-75
2023/08/06 11:12:10;;;;;;;17.98;9.27;;;20.90;99.90;;;;;;5054763;28;20128;-77
2023/08/06 11:14:35;;;;;;;16.00;9.90;;;21.10;99.90;;;;;;5053635;28;20131;-75
2023/08/06 11:17:01;;;;;;;14.50;8.30;;;21.20;99.90;;;;;;5036903;28;20157;-75
2023/08/06 11:19:27;;;;;;;15.90;8.50;;;21.50;99.90;;;;;;5054432;28;20041;-75
2023/08/06 11:21:54;;;;;;;13.30;8.03;;;21.50;99.90;;;;;;5054559;28;20044;-75
2023/08/06 11:24:20;;;;;;;12.70;7.40;;;21.70;99.90;;;;;;5053411;28;20113;-76
2023/08/06 11:26:46;;;;;;;14.07;8.20;;;21.80;99.90;;;;;;5053140;28;20095;-75
2023/08/06 11:29:11;;;;;;;13.83;7.80;;;21.50;99.90;;;;;;5054473;28;20084;-75
2023/08/06 11:31:37;;;;;;;15.03;7.80;;;21.70;99.90;;;;;;5054186;28;20049;-73
2023/08/06 11:34:04;;;;;;;15.02;7.82;;;21.80;99.90;;;;;;5052979;28;20103;-75
2023/08/06 11:36:36;;;;;;;14.83;7.83;;;21.70;99.90;;;;;;5053236;28;20045;-73
2023/08/06 11:39:05;;;;;;;14.90;7.82;;;21.80;99.90;;;;;;5053399;28;20052;-74
2023/08/06 11:41:31;;;;;;;11.95;6.43;;;21.50;99.90;;;;;;5055752;28;20049;-74
2023/08/06 11:44:01;;;;;;;12.55;6.70;;;21.50;99.90;;;;;;5056421;28;20468;-74
2023/08/06 11:46:27;;;;;;;11.45;7.05;;;21.60;99.90;;;;;;5054444;28;20056;-73
2023/08/06 11:48:52;;;;;;;14.03;7.77;;;21.30;99.90;;;;;;5054876;28;20049;-74
2023/08/06 11:51:20;;;;;;;10.77;6.97;;;21.40;99.90;;;;;;5055248;28;20041;-74
2023/08/06 11:53:49;;;;;;;11.30;7.47;;;21.40;99.90;;;;;;5054920;28;20447;-74
2023/08/06 11:56:16;;;;;;;11.50;6.50;;;21.40;99.90;;;;;;5054728;28;20091;-75
2023/08/06 11:58:42;;;;;;;13.65;7.40;;;21.30;99.90;;;;;;5054097;28;20041;-76
2023/08/06 12:01:08;;;;;;;13.85;6.75;;;21.30;99.90;;;;;;5052660;28;20041;-74
2023/08/06 12:03:42;;;;;;;10.53;4.67;;;21.40;99.90;;;;;;5052696;28;20048;-72
2023/08/06 12:06:08;;;;;;;11.50;5.97;;;21.20;99.90;;;;;;5054055;28;20085;-71
2023/08/06 12:08:33;;;;;;;11.07;4.63;;;21.40;99.90;;;;;;5053567;28;20099;-72
2023/08/06 12:10:59;;;;;;;10.13;4.97;;;21.50;99.90;;;;;;5053888;28;20041;-73
2023/08/06 12:13:25;;;;;;;10.13;5.68;;;21.70;99.90;;;;;;5053694;28;20045;-74
2023/08/06 12:15:53;;;;;;;12.80;5.50;;;21.90;99.90;;;;;;5053471;28;20056;-73
2023/08/06 12:18:19;;;;;;;12.70;5.35;;;21.70;99.90;;;;;;5052336;28;20371;-75
2023/08/06 12:20:45;;;;;;;9.63;5.80;;;22.00;99.90;;;;;;5052719;28;20124;-73
2023/08/06 12:23:15;;;;;;;10.87;5.03;;;22.20;99.90;;;;;;5052336;28;20049;-74
2023/08/06 12:25:41;;;;;;;9.95;4.97;;;22.50;99.90;;;;;;5053398;28;20049;-73
2023/08/06 12:28:08;;;;;;;10.13;5.32;;;22.40;99.90;;;;;;5052718;28;20045;-74